Time;durP1;ratioP1;P1;durP2;ratioP2;P2;SDS_P1;SDS_P2;PMS_P1;PMS_P2;Temp;Humidity;BMP_temperature;BMP_pressure;BME280_temperature;BME280_humidity;BME280_pressure;Samples;Min_cycle;Max_cycle;Signal;HPM_P1;HPM_P2
2022/05/30 00:01:37;;;;;;;3.00;1.58;;;10.20;99.90;;;;;;5025740;28;20408;-86
2022/05/30 00:04:05;;;;;;;1.40;1.30;;;10.20;99.90;;;;;;5014149;28;20394;-87
2022/05/30 00:06:33;;;;;;;2.45;1.60;;;10.20;99.90;;;;;;5009881;28;20415;-86
2022/05/30 00:09:01;;;;;;;2.58;1.60;;;10.20;99.90;;;;;;5015389;28;20395;-86
2022/05/30 00:11:29;;;;;;;2.15;1.50;;;10.20;99.90;;;;;;5018987;28;20407;-86
2022/05/30 00:13:56;;;;;;;3.78;1.63;;;10.20;99.90;;;;;;5016306;28;20450;-84
2022/05/30 00:16:24;;;;;;;3.42;2.30;;;10.20;99.90;;;;;;5018106;28;20502;-87
2022/05/30 00:18:53;;;;;;;5.03;3.88;;;10.20;99.90;;;;;;5013722;28;20400;-86
2022/05/30 00:21:22;;;;;;;8.68;5.32;;;10.20;99.90;;;;;;5024913;28;20411;-85
2022/05/30 00:23:53;;;;;;;7.40;5.30;;;10.20;99.90;;;;;;5020255;28;20430;-88
2022/05/30 00:26:22;;;;;;;18.08;5.10;;;10.30;99.90;;;;;;5049128;28;20827;-85
2022/05/30 00:28:51;;;;;;;6.03;4.50;;;10.00;99.90;;;;;;5017375;28;20399;-84
2022/05/30 00:31:20;;;;;;;4.72;3.72;;;10.10;99.90;;;;;;5045232;28;20401;-87
2022/05/30 00:33:49;;;;;;;4.85;2.95;;;10.20;99.90;;;;;;5016921;28;20399;-86
2022/05/30 00:36:17;;;;;;;5.20;3.00;;;10.20;99.90;;;;;;5021856;28;20895;-87
2022/05/30 00:38:45;;;;;;;3.47;2.55;;;10.30;99.90;;;;;;5012518;28;20498;-87
2022/05/30 00:41:17;;;;;;;3.17;2.13;;;10.30;99.90;;;;;;5013032;28;20438;-84
2022/05/30 00:43:46;;;;;;;4.40;2.58;;;10.30;99.90;;;;;;5015031;28;20401;-82
2022/05/30 00:46:18;;;;;;;5.97;4.25;;;10.30;99.90;;;;;;5020792;28;20403;-87
2022/05/30 00:48:56;;;;;;;6.45;4.63;;;10.30;99.90;;;;;;5018970;28;20536;-86
2022/05/30 00:51:36;;;;;;;6.78;4.35;;;10.30;99.90;;;;;;5021077;28;20405;-86
2022/05/30 00:54:07;;;;;;;7.10;5.07;;;10.30;99.90;;;;;;5013290;28;20503;-87
2022/05/30 00:56:41;;;;;;;8.98;5.72;;;10.30;99.90;;;;;;5008863;28;20407;-86
2022/05/30 00:59:09;;;;;;;7.18;5.40;;;10.30;99.90;;;;;;5016364;28;20407;-87
2022/05/30 01:01:37;;;;;;;7.75;5.60;;;10.30;99.90;;;;;;5016850;28;20835;-87
2022/05/30 01:06:59;;;;;;;7.68;5.43;;;10.30;99.90;;;;;;5011230;28;20479;-86
2022/05/30 01:09:32;;;;;;;8.57;5.55;;;10.30;99.90;;;;;;5018698;28;20407;-86
2022/05/30 01:12:03;;;;;;;7.63;4.97;;;10.30;99.90;;;;;;5023528;28;20401;-87
2022/05/30 01:14:35;;;;;;;9.18;5.70;;;10.30;99.90;;;;;;5049684;27;20412;-85
2022/05/30 01:17:06;;;;;;;9.05;6.18;;;10.30;99.90;;;;;;5026570;28;20405;-87
2022/05/30 01:19:46;;;;;;;8.55;6.00;;;10.30;99.90;;;;;;5015163;28;20406;-86
2022/05/30 01:22:38;;;;;;;7.43;5.60;;;10.30;99.90;;;;;;5014320;28;20440;-86
2022/05/30 01:25:18;;;;;;;9.27;6.25;;;10.30;99.90;;;;;;5012434;28;20433;-86
2022/05/30 01:28:11;;;;;;;7.55;5.75;;;10.20;99.90;;;;;;5010498;28;20445;-87
2022/05/30 01:30:42;;;;;;;7.20;5.10;;;10.30;99.90;;;;;;5017252;28;20411;-87
2022/05/30 01:33:11;;;;;;;5.22;3.90;;;10.30;99.90;;;;;;5012322;28;20499;-87
2022/05/30 01:35:39;;;;;;;6.25;3.95;;;10.20;99.90;;;;;;5014991;28;20479;-87
2022/05/30 01:38:14;;;;;;;7.63;4.05;;;10.30;99.90;;;;;;5017873;28;20581;-87
2022/05/30 01:40:43;;;;;;;6.30;4.10;;;10.30;99.90;;;;;;5023445;28;20475;-85
2022/05/30 01:43:12;;;;;;;8.48;5.50;;;10.20;99.90;;;;;;5048954;28;20949;-85
2022/05/30 01:45:43;;;;;;;7.67;5.53;;;10.30;99.90;;;;;;5024503;28;20411;-87
2022/05/30 01:48:13;;;;;;;6.83;4.80;;;10.30;99.90;;;;;;5049809;27;20751;-85
2022/05/30 01:50:47;;;;;;;8.40;5.13;;;10.30;99.90;;;;;;5026895;28;20389;-86
2022/05/30 01:53:23;;;;;;;7.95;5.35;;;10.30;99.90;;;;;;5015824;28;20447;-86
2022/05/30 01:56:09;;;;;;;9.18;6.10;;;10.30;99.90;;;;;;5011575;28;20477;-87
2022/05/30 01:58:37;;;;;;;9.57;6.32;;;10.30;99.90;;;;;;5015847;28;20407;-83
2022/05/30 02:01:26;;;;;;;8.35;6.40;;;10.20;99.90;;;;;;5025984;28;20405;-86
2022/05/30 02:03:57;;;;;;;9.68;6.22;;;10.30;99.90;;;;;;5014248;28;20464;-85
2022/05/30 02:06:26;;;;;;;7.40;5.20;;;10.30;99.90;;;;;;5014077;28;20393;-86
2022/05/30 02:08:54;;;;;;;9.80;5.90;;;10.30;99.90;;;;;;5017324;28;20413;-86
2022/05/30 02:11:27;;;;;;;10.23;6.53;;;10.30;99.90;;;;;;5015515;28;20419;-86
2022/05/30 02:14:12;;;;;;;10.90;7.30;;;10.30;99.90;;;;;;5024613;28;20568;-87
2022/05/30 02:19:34;;;;;;;8.35;6.20;;;10.30;99.90;;;;;;5019641;28;20815;-86
2022/05/30 02:22:15;;;;;;;9.40;6.25;;;10.30;99.90;;;;;;5017892;28;20405;-87
2022/05/30 02:24:42;;;;;;;10.48;6.95;;;10.30;99.90;;;;;;5022271;28;20901;-87
2022/05/30 02:27:13;;;;;;;10.60;7.32;;;10.30;99.90;;;;;;5018718;28;20802;-86
2022/05/30 02:29:42;;;;;;;8.57;6.10;;;10.30;99.90;;;;;;5022086;28;20397;-86
2022/05/30 02:32:15;;;;;;;9.02;6.28;;;10.30;99.90;;;;;;5020225;28;20540;-85
2022/05/30 02:37:30;;;;;;;10.82;6.60;;;10.20;99.90;;;;;;5049655;28;20400;-86
2022/05/30 02:40:05;;;;;;;8.50;5.75;;;10.20;99.90;;;;;;5056764;28;20407;-85
2022/05/30 02:42:32;;;;;;;8.20;5.38;;;10.30;99.90;;;;;;5016345;28;20419;-85
2022/05/30 02:45:03;;;;;;;8.18;5.85;;;10.30;99.90;;;;;;5017108;28;20408;-84
2022/05/30 02:47:31;;;;;;;7.53;5.80;;;10.30;99.90;;;;;;5051290;28;20414;-86
2022/05/30 02:50:06;;;;;;;9.35;5.70;;;10.20;99.90;;;;;;5018811;28;20461;-83
2022/05/30 02:52:33;;;;;;;9.25;6.10;;;10.20;99.90;;;;;;5025760;28;20403;-86
2022/05/30 02:55:02;;;;;;;8.52;5.80;;;10.30;99.90;;;;;;5024182;28;20569;-86
2022/05/30 02:57:39;;;;;;;8.10;6.18;;;10.30;99.90;;;;;;5022574;28;20412;-86
2022/05/30 03:00:09;;;;;;;8.40;6.22;;;10.20;99.90;;;;;;5023526;28;20413;-86
2022/05/30 03:02:40;;;;;;;8.90;6.90;;;10.30;99.90;;;;;;5020618;28;20442;-84
2022/05/30 03:05:09;;;;;;;8.32;5.85;;;10.30;99.90;;;;;;5010520;28;20422;-86
2022/05/30 03:07:37;;;;;;;7.67;5.80;;;10.20;99.90;;;;;;5009354;28;20901;-85
2022/05/30 03:10:20;;;;;;;7.68;5.35;;;10.20;99.90;;;;;;5022163;28;20435;-87
2022/05/30 03:12:54;;;;;;;8.75;6.00;;;10.20;99.90;;;;;;5024581;28;20407;-86
2022/05/30 03:15:22;;;;;;;7.53;5.80;;;10.30;99.90;;;;;;5052028;28;20417;-86
2022/05/30 03:17:55;;;;;;;7.55;5.97;;;10.30;99.90;;;;;;5015856;28;20772;-86
2022/05/30 03:20:23;;;;;;;6.77;5.37;;;10.30;99.90;;;;;;5022840;28;20506;-85
2022/05/30 03:22:51;;;;;;;7.32;5.47;;;10.30;99.90;;;;;;5019616;28;20902;-85
2022/05/30 03:25:19;;;;;;;9.45;7.05;;;10.30;99.90;;;;;;5018485;28;20952;-84
2022/05/30 03:27:52;;;;;;;12.43;9.02;;;10.30;99.90;;;;;;5013814;28;20409;-86
2022/05/30 03:30:21;;;;;;;13.18;8.88;;;10.30;99.90;;;;;;5019661;28;20407;-85
2022/05/30 03:32:49;;;;;;;12.27;8.43;;;10.30;99.90;;;;;;5015017;28;20926;-85
2022/05/30 03:35:18;;;;;;;13.53;9.27;;;10.30;99.90;;;;;;5017189;28;20729;-86
2022/05/30 03:37:57;;;;;;;12.27;8.68;;;10.30;99.90;;;;;;5019773;28;20862;-86
2022/05/30 03:40:44;;;;;;;14.83;8.47;;;10.40;99.90;;;;;;5020086;28;20447;-85
2022/05/30 03:43:31;;;;;;;12.30;8.17;;;10.30;99.90;;;;;;5022161;28;20507;-86
2022/05/30 03:46:01;;;;;;;12.25;7.47;;;10.30;99.90;;;;;;5019526;28;20864;-86
2022/05/30 03:48:29;;;;;;;11.82;8.20;;;10.30;99.90;;;;;;5020916;28;20445;-85
2022/05/30 03:51:00;;;;;;;10.02;7.03;;;10.30;99.90;;;;;;5019821;28;20468;-87
2022/05/30 03:53:27;;;;;;;9.33;6.60;;;10.30;99.90;;;;;;5018716;28;20443;-86
2022/05/30 03:55:55;;;;;;;9.75;6.38;;;10.40;99.90;;;;;;5011134;28;20431;-86
2022/05/30 03:58:24;;;;;;;10.60;7.10;;;10.30;99.90;;;;;;5021535;28;20405;-84
2022/05/30 04:00:52;;;;;;;8.80;6.22;;;10.30;99.90;;;;;;5018281;28;20410;-86
2022/05/30 04:03:20;;;;;;;8.50;6.32;;;10.40;99.90;;;;;;5017260;28;20439;-86
2022/05/30 04:05:48;;;;;;;8.18;6.10;;;10.40;99.90;;;;;;5045352;28;20767;-86
2022/05/30 04:08:16;;;;;;;7.57;5.70;;;10.40;99.90;;;;;;5041548;28;20966;-84
2022/05/30 04:11:15;;;;;;;9.23;6.38;;;10.40;99.90;;;;;;5033314;28;20388;-86
2022/05/30 04:14:03;;;;;;;9.25;6.20;;;10.40;99.90;;;;;;5019429;28;20491;-86
2022/05/30 04:16:49;;;;;;;8.98;6.22;;;10.40;99.90;;;;;;5016715;28;20879;-87
2022/05/30 04:19:17;;;;;;;9.47;5.47;;;10.40;99.90;;;;;;5018541;28;20399;-86
2022/05/30 04:21:44;;;;;;;9.93;5.88;;;10.40;99.90;;;;;;5018694;28;20455;-84
2022/05/30 04:24:19;;;;;;;10.30;6.80;;;10.40;99.90;;;;;;5016209;28;20422;-85
2022/05/30 04:26:56;;;;;;;12.85;6.82;;;10.40;99.90;;;;;;5016762;28;20407;-86
2022/05/30 04:29:23;;;;;;;12.27;7.67;;;10.40;99.90;;;;;;5020375;28;20429;-86
2022/05/30 04:32:20;;;;;;;7.50;5.40;;;10.40;99.90;;;;;;5018423;28;20405;-85
2022/05/30 04:34:49;;;;;;;7.50;5.93;;;10.40;99.90;;;;;;5013074;28;20411;-85
2022/05/30 04:37:17;;;;;;;7.67;5.30;;;10.40;99.90;;;;;;5056147;27;20403;-85
2022/05/30 04:39:48;;;;;;;7.07;5.18;;;10.40;99.90;;;;;;5015894;28;20415;-85
2022/05/30 04:42:36;;;;;;;6.07;4.57;;;10.50;99.90;;;;;;5007699;28;20410;-86
2022/05/30 04:45:22;;;;;;;6.43;5.03;;;10.40;99.90;;;;;;5015351;28;20444;-85
2022/05/30 04:48:15;;;;;;;4.70;3.90;;;10.40;99.90;;;;;;5014154;28;20477;-86
2022/05/30 04:50:44;;;;;;;4.10;3.53;;;10.50;99.90;;;;;;5016988;28;20409;-87
2022/05/30 04:53:14;;;;;;;4.88;3.75;;;10.60;99.90;;;;;;5002888;28;20414;-85
2022/05/30 04:56:01;;;;;;;3.57;3.20;;;10.50;99.90;;;;;;5019873;28;20430;-83
2022/05/30 04:58:51;;;;;;;5.45;4.05;;;10.60;99.90;;;;;;5016038;28;20395;-86
2022/05/30 05:01:20;;;;;;;5.90;4.50;;;10.60;99.90;;;;;;5058167;28;20437;-85
2022/05/30 05:03:48;;;;;;;9.57;4.77;;;10.60;99.90;;;;;;5021810;28;20492;-85
2022/05/30 05:06:19;;;;;;;9.57;5.68;;;10.50;99.90;;;;;;5016927;28;20419;-84
2022/05/30 05:08:51;;;;;;;9.30;6.15;;;10.50;99.90;;;;;;5015675;28;20395;-85
2022/05/30 05:11:42;;;;;;;9.38;6.72;;;10.50;99.90;;;;;;5016429;28;20415;-85
2022/05/30 05:14:45;;;;;;;10.05;6.03;;;10.40;99.90;;;;;;4986141;28;20923;-85
2022/05/30 05:17:45;;;;;;;10.83;6.93;;;10.40;99.90;;;;;;5058410;28;20412;-85
2022/05/30 05:20:14;;;;;;;11.45;7.28;;;10.40;99.90;;;;;;5016664;28;20417;-84
2022/05/30 05:22:41;;;;;;;10.77;7.18;;;10.40;99.90;;;;;;5017937;28;20462;-85
2022/05/30 05:25:10;;;;;;;14.60;8.17;;;10.40;99.90;;;;;;5047750;28;20441;-85
2022/05/30 05:27:40;;;;;;;9.45;6.47;;;10.40;99.90;;;;;;5020351;28;20879;-85
2022/05/30 05:30:10;;;;;;;9.07;6.53;;;10.50;99.90;;;;;;5014908;28;20477;-85
2022/05/30 05:32:41;;;;;;;11.07;6.77;;;10.50;99.90;;;;;;5021281;28;20418;-86
2022/05/30 05:35:10;;;;;;;14.10;8.73;;;10.50;99.90;;;;;;5019807;28;20413;-85
2022/05/30 05:37:38;;;;;;;12.35;7.32;;;10.50;99.90;;;;;;5006752;28;20403;-86
2022/05/30 05:40:28;;;;;;;11.30;7.28;;;10.50;99.90;;;;;;5017256;28;20389;-85
2022/05/30 05:42:56;;;;;;;10.53;6.50;;;10.60;99.90;;;;;;5054358;28;20408;-86
2022/05/30 05:45:23;;;;;;;4.75;4.07;;;10.60;99.90;;;;;;5023467;28;20397;-85
2022/05/30 05:47:51;;;;;;;7.25;4.80;;;10.40;99.90;;;;;;5044339;28;20464;-85
2022/05/30 05:50:19;;;;;;;4.80;4.18;;;10.40;99.90;;;;;;5024197;28;20480;-85
2022/05/30 05:52:48;;;;;;;4.35;3.95;;;10.40;99.90;;;;;;5014018;28;20413;-85
2022/05/30 05:55:21;;;;;;;4.55;3.35;;;10.50;99.90;;;;;;5010621;28;20407;-84
2022/05/30 05:57:50;;;;;;;5.93;4.18;;;10.60;99.90;;;;;;5010985;28;20410;-86
2022/05/30 06:00:19;;;;;;;4.15;3.55;;;10.60;99.90;;;;;;5016525;28;20852;-85
2022/05/30 06:02:46;;;;;;;4.07;3.67;;;10.70;99.90;;;;;;5017820;28;20490;-84
2022/05/30 06:05:21;;;;;;;6.60;3.53;;;10.70;99.90;;;;;;5017380;28;20397;-86
2022/05/30 06:08:10;;;;;;;4.45;2.85;;;10.80;99.90;;;;;;5023271;28;20414;-86
2022/05/30 06:11:08;;;;;;;3.33;3.00;;;10.80;99.90;;;;;;5028491;28;20386;-85
2022/05/30 06:13:44;;;;;;;4.10;3.10;;;10.90;99.90;;;;;;5007324;28;20434;-85
2022/05/30 06:16:22;;;;;;;3.95;2.65;;;10.90;99.90;;;;;;5015648;28;20500;-85
2022/05/30 06:18:54;;;;;;;3.40;2.60;;;10.90;99.90;;;;;;5038490;28;20817;-85
2022/05/30 06:21:24;;;;;;;4.43;3.00;;;11.00;99.90;;;;;;5044416;28;20407;-84
2022/05/30 06:23:54;;;;;;;4.25;2.53;;;11.00;99.90;;;;;;5006637;28;20409;-84
2022/05/30 06:26:44;;;;;;;6.70;2.67;;;11.00;99.90;;;;;;5007827;28;20566;-84
2022/05/30 06:29:40;;;;;;;4.25;2.70;;;11.10;99.90;;;;;;5066388;27;20381;-85
2022/05/30 06:32:10;;;;;;;4.70;3.03;;;11.10;99.90;;;;;;5062507;27;20414;-86
2022/05/30 06:34:58;;;;;;;5.72;3.00;;;11.10;99.90;;;;;;5025530;28;20715;-85
2022/05/30 06:37:25;;;;;;;4.63;2.70;;;11.20;99.90;;;;;;5019010;28;20399;-85
2022/05/30 06:39:53;;;;;;;3.38;2.40;;;11.30;99.90;;;;;;5042896;28;20408;-86
2022/05/30 06:42:44;;;;;;;5.05;2.50;;;11.30;99.90;;;;;;5011163;28;20416;-84
2022/05/30 06:45:31;;;;;;;5.25;2.55;;;11.40;99.90;;;;;;5019586;28;20435;-85
2022/05/30 06:48:17;;;;;;;3.60;2.33;;;11.50;99.90;;;;;;5018375;28;20386;-84
2022/05/30 06:51:14;;;;;;;4.93;2.30;;;11.50;99.90;;;;;;5020389;28;20492;-83
2022/05/30 06:53:45;;;;;;;4.78;2.65;;;11.50;99.90;;;;;;5019881;28;20461;-85
2022/05/30 06:56:14;;;;;;;5.50;2.60;;;11.50;99.90;;;;;;5022935;28;20409;-84
2022/05/30 06:58:45;;;;;;;3.92;2.00;;;11.50;99.90;;;;;;5023414;28;20496;-85
2022/05/30 07:01:14;;;;;;;6.60;2.30;;;11.50;99.90;;;;;;5036557;28;20947;-84
2022/05/30 07:03:44;;;;;;;11.10;2.38;;;11.50;99.90;;;;;;5020763;28;21050;-84
2022/05/30 07:06:33;;;;;;;7.25;2.30;;;11.60;99.90;;;;;;5024979;28;20488;-84
2022/05/30 07:09:41;;;;;;;4.03;2.20;;;11.60;99.90;;;;;;5012247;28;20382;-84
2022/05/30 07:12:27;;;;;;;4.18;2.40;;;11.60;99.90;;;;;;5021077;27;20452;-84
2022/05/30 07:14:55;;;;;;;2.65;1.98;;;11.70;99.90;;;;;;5019700;28;20410;-84
2022/05/30 07:17:24;;;;;;;6.85;2.13;;;11.70;99.90;;;;;;5022076;28;20398;-83
2022/05/30 07:19:52;;;;;;;8.07;2.08;;;11.90;99.90;;;;;;5014192;28;20502;-84
2022/05/30 07:22:27;;;;;;;8.52;2.20;;;11.90;99.90;;;;;;5020673;28;20421;-85
2022/05/30 07:25:13;;;;;;;4.75;1.90;;;12.00;99.90;;;;;;5024901;28;20382;-84
2022/05/30 07:28:01;;;;;;;5.47;1.60;;;12.10;99.90;;;;;;5016281;28;20415;-85
2022/05/30 07:30:54;;;;;;;2.60;1.50;;;12.10;99.90;;;;;;5011716;28;20978;-85
2022/05/30 07:33:48;;;;;;;1.70;1.30;;;12.20;99.90;;;;;;5009545;28;20424;-83
2022/05/30 07:36:51;;;;;;;3.35;1.30;;;12.20;99.90;;;;;;5059990;28;20381;-86
2022/05/30 07:39:43;;;;;;;2.78;1.35;;;12.20;99.90;;;;;;5010350;28;20879;-86
2022/05/30 07:42:29;;;;;;;1.50;1.30;;;12.30;99.90;;;;;;5023982;28;20397;-85
2022/05/30 07:45:13;;;;;;;1.70;1.60;;;12.30;99.90;;;;;;5015847;28;20416;-84
2022/05/30 07:48:02;;;;;;;2.20;1.50;;;12.20;99.90;;;;;;5037077;28;20446;-86
2022/05/30 07:50:53;;;;;;;2.07;1.60;;;12.20;99.90;;;;;;5018397;28;20447;-84
2022/05/30 07:53:33;;;;;;;2.15;1.42;;;12.30;99.90;;;;;;5020402;28;20395;-85
2022/05/30 07:56:15;;;;;;;5.20;1.67;;;12.50;99.90;;;;;;5022648;28;20408;-85
2022/05/30 07:58:45;;;;;;;3.17;1.85;;;12.50;99.90;;;;;;5021498;28;20437;-84
2022/05/30 08:01:18;;;;;;;2.10;1.45;;;12.50;99.90;;;;;;5018659;28;20415;-85
2022/05/30 08:03:50;;;;;;;2.43;1.50;;;12.40;99.90;;;;;;5045356;27;20411;-85
2022/05/30 08:06:36;;;;;;;1.77;1.40;;;12.40;99.90;;;;;;5016522;28;20777;-84
2022/05/30 08:09:10;;;;;;;2.30;1.30;;;12.50;99.90;;;;;;5024718;28;20406;-85
2022/05/30 08:11:50;;;;;;;1.35;1.17;;;12.60;99.90;;;;;;5021775;28;20443;-85
2022/05/30 08:14:40;;;;;;;3.30;1.30;;;12.70;99.90;;;;;;5015250;28;20395;-84
2022/05/30 08:17:08;;;;;;;5.40;1.50;;;12.70;99.90;;;;;;5015590;28;20400;-86
2022/05/30 08:19:40;;;;;;;1.90;1.48;;;12.70;99.90;;;;;;5018338;28;20502;-88
2022/05/30 08:22:18;;;;;;;2.50;1.50;;;12.80;99.90;;;;;;5016401;28;20628;-86
2022/05/30 08:24:48;;;;;;;1.83;1.50;;;12.70;99.90;;;;;;5019805;28;20980;-87
2022/05/30 08:27:19;;;;;;;1.65;1.30;;;12.70;99.90;;;;;;5049656;28;20500;-86
2022/05/30 08:29:50;;;;;;;1.40;1.30;;;12.70;99.90;;;;;;5025053;28;20404;-86
2022/05/30 08:32:18;;;;;;;1.80;1.30;;;12.70;99.90;;;;;;5022194;28;20441;-87
2022/05/30 08:35:19;;;;;;;2.07;1.20;;;12.80;99.90;;;;;;5024788;28;20394;-88
2022/05/30 08:37:48;;;;;;;1.20;1.00;;;12.90;99.90;;;;;;5014213;28;20776;-88
2022/05/30 08:43:29;;;;;;;1.27;1.17;;;13.10;99.90;;;;;;5037698;28;21084;-87
2022/05/30 08:46:20;;;;;;;1.80;1.20;;;13.20;99.90;;;;;;5018595;28;20398;-85
2022/05/30 08:49:15;;;;;;;2.40;1.30;;;13.10;99.90;;;;;;5023556;28;20464;-88
2022/05/30 08:52:13;;;;;;;2.00;1.30;;;13.10;99.90;;;;;;5051104;28;20820;-87
2022/05/30 08:54:59;;;;;;;1.52;1.35;;;13.00;99.90;;;;;;5005693;28;20419;-87
2022/05/30 08:58:08;;;;;;;2.28;1.48;;;13.20;99.90;;;;;;5011263;28;20419;-87
2022/05/30 09:01:08;;;;;;;2.95;1.50;;;13.20;99.90;;;;;;5030878;28;20499;-86
2022/05/30 09:04:09;;;;;;;1.25;1.15;;;13.30;99.90;;;;;;5014556;28;20539;-87
2022/05/30 09:06:47;;;;;;;2.00;1.33;;;13.20;99.90;;;;;;5016023;28;20411;-87
2022/05/30 09:09:43;;;;;;;1.65;1.25;;;13.20;99.90;;;;;;5045556;28;20414;-88
2022/05/30 09:12:38;;;;;;;1.20;1.10;;;13.20;99.90;;;;;;5015276;28;20434;-89
2022/05/30 09:15:35;;;;;;;1.52;1.15;;;13.30;99.90;;;;;;4994310;28;20875;-88
2022/05/30 09:18:15;;;;;;;1.90;1.20;;;13.30;99.90;;;;;;5021773;28;20391;-88
2022/05/30 09:20:43;;;;;;;3.28;1.40;;;13.30;99.90;;;;;;5016252;28;20455;-88
2022/05/30 09:23:18;;;;;;;1.30;1.20;;;13.40;99.90;;;;;;5004278;28;20781;-87
2022/05/30 09:26:07;;;;;;;1.30;1.20;;;13.50;99.90;;;;;;5023349;28;20907;-88
2022/05/30 09:28:44;;;;;;;2.30;1.20;;;13.60;99.90;;;;;;5019258;28;20787;-88
2022/05/30 09:31:36;;;;;;;1.13;1.02;;;13.50;99.90;;;;;;5008556;28;20426;-88
2022/05/30 09:34:30;;;;;;;1.10;1.00;;;13.40;99.90;;;;;;5021124;28;20437;-88
2022/05/30 09:37:30;;;;;;;1.35;1.10;;;13.40;99.90;;;;;;5022171;28;20940;-87
2022/05/30 09:40:20;;;;;;;2.33;1.23;;;13.50;99.90;;;;;;5019748;28;20527;-88
2022/05/30 09:43:27;;;;;;;1.20;1.10;;;13.60;99.90;;;;;;5022374;28;20472;-86
2022/05/30 09:45:56;;;;;;;1.90;1.00;;;13.70;99.90;;;;;;5018387;28;20403;-88
2022/05/30 09:49:04;;;;;;;1.25;0.90;;;13.90;99.90;;;;;;5038936;28;20429;-88
2022/05/30 09:51:33;;;;;;;0.93;0.80;;;13.90;99.90;;;;;;5009223;28;20423;-87
2022/05/30 09:54:12;;;;;;;1.50;0.90;;;14.00;99.90;;;;;;5007174;28;20391;-86
2022/05/30 09:56:45;;;;;;;2.70;0.80;;;14.00;99.90;;;;;;5018251;28;20422;-87
2022/05/30 09:59:24;;;;;;;1.67;0.98;;;13.90;99.90;;;;;;5007482;28;20421;-89
2022/05/30 10:02:19;;;;;;;1.02;0.88;;;13.80;99.90;;;;;;5011087;28;20450;-88
2022/05/30 10:05:05;;;;;;;1.00;0.85;;;13.90;99.90;;;;;;5021503;28;20976;-88
2022/05/30 10:07:34;;;;;;;1.30;0.70;;;13.90;99.90;;;;;;5015331;28;20423;-88
2022/05/30 10:10:33;;;;;;;1.05;0.77;;;14.00;99.90;;;;;;5021421;28;20502;-86
2022/05/30 10:13:04;;;;;;;4.78;1.10;;;14.00;99.90;;;;;;5021869;28;20411;-86
2022/05/30 10:16:01;;;;;;;1.25;0.75;;;14.10;99.90;;;;;;5021462;28;20474;-86
2022/05/30 10:18:49;;;;;;;0.75;0.75;;;14.20;99.90;;;;;;5043062;28;20404;-86
2022/05/30 10:21:25;;;;;;;1.97;0.80;;;14.30;99.90;;;;;;5057626;28;20414;-88
2022/05/30 10:28:21;;;;;;;1.02;0.80;;;14.30;99.90;;;;;;5053042;28;20416;-87
2022/05/30 10:31:20;;;;;;;1.08;0.80;;;14.20;99.90;;;;;;5037702;27;20484;-87
2022/05/30 10:34:15;;;;;;;0.95;0.90;;;14.20;99.90;;;;;;5041585;28;20398;-88
2022/05/30 10:37:25;;;;;;;1.03;0.93;;;14.10;99.90;;;;;;5020268;28;20456;-89
2022/05/30 10:40:11;;;;;;;0.85;0.80;;;14.10;99.90;;;;;;5045419;28;20401;-89
2022/05/30 10:43:08;;;;;;;1.17;1.08;;;14.10;99.90;;;;;;5060200;28;20751;-89
2022/05/30 10:46:04;;;;;;;0.73;0.73;;;14.10;99.90;;;;;;5019134;28;20408;-88
2022/05/30 10:48:52;;;;;;;1.40;0.90;;;14.10;99.90;;;;;;5040065;28;20864;-90
2022/05/30 10:51:35;;;;;;;2.03;0.90;;;14.10;99.90;;;;;;5016450;27;20502;-91
2022/05/30 10:54:22;;;;;;;1.65;0.85;;;14.00;99.90;;;;;;5019036;28;20459;-88
2022/05/30 10:57:13;;;;;;;1.40;0.90;;;13.90;99.90;;;;;;5036194;27;20429;-87
2022/05/30 11:00:03;;;;;;;1.07;0.97;;;13.90;99.90;;;;;;5023110;28;20449;-89
2022/05/30 11:02:59;;;;;;;1.20;1.10;;;13.90;99.90;;;;;;5024548;28;20434;-86
2022/05/30 11:05:38;;;;;;;2.20;0.90;;;13.90;99.90;;;;;;5017073;28;20412;-88
2022/05/30 11:08:27;;;;;;;1.10;1.00;;;13.90;99.90;;;;;;5030011;28;20418;-88
2022/05/30 11:11:13;;;;;;;1.35;1.10;;;13.90;99.90;;;;;;5020093;28;20893;-87
2022/05/30 11:14:09;;;;;;;2.83;0.90;;;13.90;99.90;;;;;;5018767;28;20424;-89
2022/05/30 11:17:08;;;;;;;1.20;1.05;;;13.90;99.90;;;;;;5016445;28;20428;-89
2022/05/30 11:20:18;;;;;;;1.50;1.40;;;13.90;99.90;;;;;;5015895;28;20410;-90
2022/05/30 11:22:53;;;;;;;2.00;1.10;;;13.90;99.90;;;;;;5047422;28;20410;-89
2022/05/30 11:25:55;;;;;;;1.30;1.10;;;13.90;99.90;;;;;;5020885;28;20811;-87
2022/05/30 11:28:35;;;;;;;2.60;1.10;;;14.00;99.90;;;;;;5022822;28;20755;-89
2022/05/30 11:31:09;;;;;;;1.70;1.00;;;14.10;99.90;;;;;;5026278;28;20468;-88
2022/05/30 11:33:48;;;;;;;1.30;1.02;;;14.30;99.90;;;;;;5013517;28;20388;-89
2022/05/30 11:36:37;;;;;;;2.38;1.10;;;14.40;99.90;;;;;;5016832;28;20403;-89
2022/05/30 11:39:11;;;;;;;1.20;1.10;;;14.50;99.90;;;;;;5015723;28;20442;-89
2022/05/30 11:42:03;;;;;;;1.10;1.00;;;14.50;99.90;;;;;;5024617;28;20401;-87
2022/05/30 11:44:53;;;;;;;1.30;1.10;;;14.50;99.90;;;;;;5016251;28;20463;-89
2022/05/30 11:47:30;;;;;;;1.45;1.17;;;14.40;99.90;;;;;;5018892;28;20445;-88
2022/05/30 11:50:31;;;;;;;0.98;0.90;;;14.30;99.90;;;;;;5019376;28;20468;-88
2022/05/30 11:53:06;;;;;;;1.00;0.90;;;14.20;99.90;;;;;;5010260;28;20442;-89
2022/05/30 11:55:42;;;;;;;1.88;0.88;;;14.10;99.90;;;;;;5012704;28;20402;-87
2022/05/30 11:58:20;;;;;;;2.50;0.98;;;14.10;99.90;;;;;;5016584;28;20406;-88
2022/05/30 12:00:50;;;;;;;1.53;1.00;;;14.00;99.90;;;;;;5020637;28;20467;-88
2022/05/30 12:03:30;;;;;;;1.42;0.95;;;14.10;99.90;;;;;;5013638;28;20467;-89
2022/05/30 12:06:26;;;;;;;1.83;0.85;;;14.00;99.90;;;;;;5013098;28;20586;-89
2022/05/30 12:09:09;;;;;;;2.15;1.00;;;14.00;99.90;;;;;;5014157;28;20999;-88
2022/05/30 12:12:04;;;;;;;1.63;0.90;;;14.10;99.90;;;;;;5019073;28;20402;-89
2022/05/30 12:14:38;;;;;;;1.05;0.90;;;14.00;99.90;;;;;;5014904;28;20460;-85
2022/05/30 12:17:28;;;;;;;1.10;0.90;;;14.00;99.90;;;;;;5014988;28;20405;-89
2022/05/30 12:26:07;;;;;;;1.98;1.35;;;13.90;99.90;;;;;;5015176;28;20413;-88
2022/05/30 12:28:34;;;;;;;1.25;1.10;;;13.80;99.90;;;;;;5019485;28;20463;-88
2022/05/30 12:31:06;;;;;;;3.15;1.40;;;13.80;99.90;;;;;;5038650;28;20413;-88
2022/05/30 12:33:34;;;;;;;1.95;1.40;;;13.80;99.90;;;;;;5023209;28;20390;-85
2022/05/30 12:36:11;;;;;;;2.88;1.40;;;13.80;99.90;;;;;;5015319;28;20481;-89
2022/05/30 12:38:53;;;;;;;2.05;1.35;;;13.90;99.90;;;;;;5016912;28;20414;-89
2022/05/30 12:41:34;;;;;;;2.47;1.38;;;13.90;99.90;;;;;;5017997;28;20406;-89
2022/05/30 12:44:02;;;;;;;3.35;1.50;;;13.90;99.90;;;;;;5012620;28;20920;-88
2022/05/30 12:46:52;;;;;;;1.70;1.30;;;13.90;99.90;;;;;;5021035;28;20902;-89
2022/05/30 12:49:33;;;;;;;3.03;1.33;;;13.80;99.90;;;;;;5019231;28;20923;-86
2022/05/30 12:52:21;;;;;;;2.60;1.50;;;13.80;99.90;;;;;;5049460;28;20407;-90
2022/05/30 12:54:57;;;;;;;2.08;1.73;;;13.80;99.90;;;;;;5016689;28;20433;-89
2022/05/30 12:57:38;;;;;;;2.50;1.30;;;13.80;99.90;;;;;;5017326;28;20882;-89
2022/05/30 13:00:43;;;;;;;2.55;1.50;;;13.90;99.90;;;;;;5016759;28;20778;-89
2022/05/30 13:03:30;;;;;;;3.30;1.30;;;13.90;99.90;;;;;;5012041;28;20490;-89
2022/05/30 13:06:10;;;;;;;2.90;1.50;;;13.90;99.90;;;;;;5013953;28;20493;-88
2022/05/30 13:09:07;;;;;;;1.98;1.50;;;13.90;99.90;;;;;;5019294;28;20407;-89
2022/05/30 13:11:35;;;;;;;3.03;1.70;;;13.90;99.90;;;;;;5022345;28;20490;-89
2022/05/30 13:14:27;;;;;;;2.53;1.50;;;13.90;99.90;;;;;;5016849;28;20418;-90
2022/05/30 13:17:17;;;;;;;2.95;1.67;;;13.90;99.90;;;;;;5023365;28;20407;-89
2022/05/30 13:19:59;;;;;;;2.63;1.52;;;14.00;99.90;;;;;;5020246;28;20413;-89
2022/05/30 13:22:33;;;;;;;2.60;1.60;;;14.00;99.90;;;;;;5021379;28;20905;-88
2022/05/30 13:25:04;;;;;;;3.23;1.80;;;14.00;99.90;;;;;;5019766;28;20504;-91
2022/05/30 13:27:32;;;;;;;1.98;1.60;;;14.00;99.90;;;;;;5012861;28;20403;-89
2022/05/30 13:30:08;;;;;;;3.30;1.75;;;14.00;99.90;;;;;;5014197;28;20409;-89
2022/05/30 13:32:36;;;;;;;3.17;1.88;;;14.00;99.90;;;;;;5014773;28;20411;-88
2022/05/30 13:35:09;;;;;;;2.25;1.75;;;14.00;99.90;;;;;;5017335;28;20430;-89
2022/05/30 13:37:48;;;;;;;3.50;1.85;;;14.00;99.90;;;;;;5021421;28;20458;-88
2022/05/30 13:40:24;;;;;;;4.10;1.70;;;14.00;99.90;;;;;;5019634;28;20392;-88
2022/05/30 13:42:58;;;;;;;3.42;2.20;;;14.00;99.90;;;;;;5012285;28;20395;-88
2022/05/30 13:45:46;;;;;;;4.70;2.30;;;13.90;99.90;;;;;;5018032;28;20401;-87
2022/05/30 13:48:18;;;;;;;4.70;2.33;;;13.70;99.90;;;;;;5022843;28;20402;-90
2022/05/30 13:51:06;;;;;;;3.38;2.10;;;13.60;99.90;;;;;;5018831;28;20966;-88
2022/05/30 13:53:47;;;;;;;5.60;2.60;;;13.60;99.90;;;;;;5020964;28;20414;-89
2022/05/30 13:56:25;;;;;;;5.15;2.17;;;13.40;99.90;;;;;;5016028;28;20399;-87
2022/05/30 13:58:58;;;;;;;3.50;2.10;;;13.30;99.90;;;;;;5025948;28;20486;-88
2022/05/30 14:01:35;;;;;;;5.40;1.95;;;13.30;99.90;;;;;;5019693;28;20955;-88
2022/05/30 14:04:27;;;;;;;4.60;2.50;;;13.40;99.90;;;;;;5014930;28;20407;-87
2022/05/30 14:06:54;;;;;;;3.40;1.95;;;13.40;99.90;;;;;;5023834;28;20461;-87